Weather reports worldwide

Advertisment
Chatillon/Seine, France (7276): temperature & dewpoint: 10.07.2018 18:00:00 - 16.07.2018 18:00:00 (CEST)Chatillon/Seine, France (7276): wind speed & gusts: 10.07.2018 18:00:00 - 16.07.2018 18:00:00 (CEST)Chatillon/Seine, France (7276): wind direction: 10.07.2018 18:00:00 - 16.07.2018 18:00:00 (CEST)Chatillon/Seine, France (7276): sunshine duration: 10.07.2018 18:00:00 - 16.07.2018 18:00:00 (CEST)Chatillon/Seine, France (7276): precipitation: 10.07.2018 18:00:00 - 16.07.2018 18:00:00 (CEST)
Date & Time tt [°C] td [°C] ff [km/h] ff [kn] fx [km/h] fx [kn] dd sd [min] rr [mm]
16.07.2018 18:00:00 - - - - - - - - -
16.07.2018 17:00:00 30,5 7,6 16 9 31 17 NNW 48 0,0
16.07.2018 16:00:00 30,8 9,1 9 5 22 12 NNW 54 0,0
16.07.2018 15:00:00 29,7 10,8 9 5 21 11 NW 48 0,0
16.07.2018 14:00:00 29,4 10,5 8 4 26 14 NE 54 -
16.07.2018 13:00:00 29,0 11,1 8 4 22 12 NE 60 0,0
16.07.2018 12:00:00 28,9 12,7 9 5 18 10 E 60 0,0
16.07.2018 11:00:00 25,7 13,2 9 5 16 9 NNE 60 0,0
16.07.2018 10:00:00 23,7 14,9 4 2 9 5 NNE 60 0,0
16.07.2018 09:00:00 18,1 14,4 2 1 8 4 SSW 60 0,0
16.07.2018 08:00:00 16,4 14,1 2 1 5 3 E 60 -
16.07.2018 07:00:00 12,2 11,4 0 0 5 3 N 36 0,0
16.07.2018 06:00:00 11,7 10,8 2 1 8 4 S 0 0,0
16.07.2018 05:00:00 12,1 10,5 0 0 11 6 N 0 0,0
16.07.2018 04:00:00 13,1 11,5 4 2 9 5 SSW 0 0,0
16.07.2018 03:00:00 13,6 12,0 4 2 13 7 SSE 0 0,0
16.07.2018 02:00:00 13,9 12,5 8 4 18 10 SSE 0 -
16.07.2018 01:00:00 15,0 13,2 13 7 22 12 SSE 0 0,0
16.07.2018 00:00:00 16,0 13,8 9 5 13 7 SSE 0 0,0
15.07.2018 23:00:00 16,5 15,2 0 0 13 7 N 0 0,0
15.07.2018 22:00:00 17,3 15,1 4 2 8 4 SSE 0 0,0
15.07.2018 21:00:00 21,0 15,5 4 2 15 8 ESE 48 0,0
15.07.2018 20:00:00 22,5 15,6 13 7 22 12 S 60 -
15.07.2018 19:00:00 20,7 15,7 11 6 31 17 E 18 0,0
15.07.2018 18:00:00 18,9 15,9 11 6 39 21 SE 0 2,0
15.07.2018 17:00:00 23,8 12,8 13 7 44 24 E 12 0,0
15.07.2018 16:00:00 24,6 12,9 35 19 52 28 ESE 12 0,2
15.07.2018 15:00:00 29,9 10,4 4 2 18 10 SW 42 0,0
15.07.2018 14:00:00 28,6 12,1 8 4 21 11 W 18 -
15.07.2018 13:00:00 29,7 11,7 8 4 18 10 W 60 0,0
15.07.2018 12:00:00 28,2 12,9 8 4 16 9 NW 60 0,0
15.07.2018 11:00:00 26,3 13,8 5 3 16 9 NNE 60 0,0
15.07.2018 10:00:00 23,0 13,5 5 3 13 7 N 48 0,0
15.07.2018 09:00:00 20,3 13,3 2 1 8 4 SSW 54 0,0
15.07.2018 08:00:00 15,9 12,6 5 3 13 7 NW 60 -
15.07.2018 07:00:00 13,1 11,7 0 0 8 4 N 36 0,0
15.07.2018 06:00:00 11,7 9,8 2 1 8 4 ESE 0 0,0
15.07.2018 05:00:00 12,9 10,8 4 2 8 4 S 0 0,0
15.07.2018 04:00:00 13,8 11,3 5 3 9 5 S 0 0,0
15.07.2018 03:00:00 13,6 10,4 5 3 8 4 SSE 0 0,0
15.07.2018 02:00:00 15,4 11,8 4 2 11 6 SSW 0 -
15.07.2018 01:00:00 16,4 12,7 8 4 11 6 S 0 0,0
15.07.2018 00:00:00 18,6 12,1 8 4 9 5 SW 0 0,0
14.07.2018 23:00:00 20,7 10,8 0 0 9 5 N 0 0,0
14.07.2018 22:00:00 25,0 10,8 4 2 9 5 N 0 0,0
14.07.2018 21:00:00 28,0 10,2 5 3 11 6 NNW 54 0,0
14.07.2018 20:00:00 29,2 10,8 5 3 16 9 NW 30 -
14.07.2018 19:00:00 28,7 10,4 9 5 16 9 NW 24 0,0
14.07.2018 18:00:00 28,9 10,5 9 5 22 12 W 42 0,0
14.07.2018 17:00:00 30,0 11,0 9 5 24 13 NNW 36 0,0
14.07.2018 16:00:00 30,0 11,5 11 6 24 13 W 42 0,0
14.07.2018 15:00:00 29,7 9,8 9 5 22 12 NNE 36 0,0
14.07.2018 14:00:00 28,4 11,5 8 4 26 14 N 18 -
14.07.2018 13:00:00 28,3 10,9 4 2 18 10 W 24 0,0
14.07.2018 12:00:00 28,0 12,8 8 4 16 9 NNW 54 0,0
14.07.2018 11:00:00 25,0 13,5 8 4 13 7 NW 48 0,0
14.07.2018 10:00:00 23,3 14,0 4 2 9 5 N 60 0,0
14.07.2018 09:00:00 19,6 14,0 2 1 5 3 N 54 0,0
14.07.2018 08:00:00 16,4 13,3 0 0 4 2 N 60 -
14.07.2018 07:00:00 12,1 11,3 2 1 5 3 SSE 36 0,0
14.07.2018 06:00:00 11,3 10,0 4 2 4 2 S 0 0,0
14.07.2018 05:00:00 11,9 10,5 0 0 9 5 N 0 0,0
14.07.2018 04:00:00 12,8 10,9 8 4 8 4 SSW 0 0,0
14.07.2018 03:00:00 13,8 11,5 0 0 4 2 N 0 0,0
14.07.2018 02:00:00 14,4 11,7 4 2 8 4 SSE 0 -
14.07.2018 01:00:00 15,1 11,1 4 2 8 4 SE 0 0,0
14.07.2018 00:00:00 17,1 11,6 4 2 11 6 SSW 0 0,0
13.07.2018 23:00:00 19,0 11,3 2 1 9 5 SE 0 0,0
13.07.2018 22:00:00 22,8 10,9 4 2 9 5 ESE 12 0,0
13.07.2018 21:00:00 26,0 11,0 4 2 15 8 N 48 0,0
13.07.2018 20:00:00 27,8 10,1 11 6 16 9 N 60 -
13.07.2018 19:00:00 30,0 9,5 4 2 15 8 WSW 48 0,0
13.07.2018 18:00:00 27,6 9,4 8 4 18 10 E 12 0,0
13.07.2018 17:00:00 28,9 9,6 4 2 18 10 ENE 24 0,0
13.07.2018 16:00:00 27,8 9,6 11 6 24 13 NNE 36 0,0
13.07.2018 15:00:00 28,2 9,9 4 2 24 13 W 48 0,0
13.07.2018 14:00:00 26,4 10,1 5 3 18 10 N 0 -
13.07.2018 13:00:00 26,5 10,6 13 7 26 14 NNE 42 0,0
13.07.2018 12:00:00 27,1 10,7 8 4 21 11 NNE 54 0,0
13.07.2018 11:00:00 25,7 11,8 5 3 18 10 NNE 60 0,0
13.07.2018 10:00:00 23,1 13,6 4 2 11 6 N 60 0,0
13.07.2018 09:00:00 19,3 13,2 2 1 5 3 N 60 0,0
13.07.2018 08:00:00 14,9 12,2 0 0 4 2 N 60 -
13.07.2018 07:00:00 11,0 10,2 0 0 5 3 N 36 0,0
13.07.2018 06:00:00 10,4 9,6 4 2 5 3 S 0 0,0
13.07.2018 05:00:00 10,3 9,1 0 0 5 3 N 0 0,0
13.07.2018 04:00:00 11,4 10,1 2 1 5 3 SSW 0 0,0
13.07.2018 03:00:00 11,8 9,9 0 0 2 1 N 0 0,0
13.07.2018 02:00:00 13,2 10,2 0 0 4 2 N 0 -
13.07.2018 01:00:00 14,6 10,8 0 0 5 3 N 0 0,0
13.07.2018 00:00:00 15,2 10,8 4 2 5 3 SE 0 0,0
12.07.2018 23:00:00 16,8 10,9 2 1 9 5 SE 0 0,0
12.07.2018 22:00:00 19,8 11,3 9 5 18 10 NNE 0 0,0
12.07.2018 21:00:00 22,9 11,0 13 7 22 12 NNE 48 0,0
12.07.2018 20:00:00 24,5 11,1 13 7 22 12 NE 60 -
12.07.2018 19:00:00 23,9 10,9 11 6 29 16 NNE 0 0,0
12.07.2018 18:00:00 24,7 11,3 15 8 29 16 NNE 18 0,0
12.07.2018 17:00:00 24,6 11,5 11 6 28 15 N 0 0,0
12.07.2018 16:00:00 25,1 10,2 11 6 29 16 NNE 30 0,0
12.07.2018 15:00:00 25,0 10,1 16 9 26 14 N 24 0,0
12.07.2018 14:00:00 24,3 9,8 15 8 29 16 NNE 36 -
12.07.2018 13:00:00 25,0 9,3 13 7 28 15 ENE 60 0,0
12.07.2018 12:00:00 23,9 9,1 13 7 26 14 NNE 60 0,0
12.07.2018 11:00:00 22,4 10,5 9 5 24 13 NNE 60 0,0
12.07.2018 10:00:00 20,2 10,9 5 3 11 6 NNE - 0,0
12.07.2018 09:00:00 16,8 10,2 4 2 9 5 NE - 0,0
12.07.2018 08:00:00 12,2 8,8 2 1 4 2 N - -
12.07.2018 07:00:00 8,1 7,2 0 0 2 1 N - 0,0
12.07.2018 06:00:00 7,2 6,1 0 0 5 3 N - 0,0
12.07.2018 05:00:00 7,0 5,8 2 1 8 4 ESE - 0,0
12.07.2018 04:00:00 7,8 6,3 2 1 8 4 SE - 0,0
12.07.2018 03:00:00 8,7 7,1 2 1 5 3 S - 0,0
12.07.2018 02:00:00 9,9 7,5 4 2 8 4 S - -
12.07.2018 01:00:00 11,2 7,9 4 2 5 3 S - 0,0
12.07.2018 00:00:00 12,5 8,2 4 2 8 4 S - 0,0
11.07.2018 23:00:00 14,0 6,6 2 1 5 3 SE - 0,0
11.07.2018 22:00:00 17,2 7,3 5 3 15 8 NE - 0,0
11.07.2018 21:00:00 20,0 7,0 11 6 26 14 N - 0,0
11.07.2018 20:00:00 21,6 6,7 11 6 28 15 NNW - -
11.07.2018 19:00:00 22,4 7,0 13 7 28 15 NNW - 0,0
11.07.2018 18:00:00 22,6 7,6 13 7 26 14 N - 0,0
11.07.2018 17:00:00 22,2 7,6 18 10 31 17 N - 0,0
11.07.2018 16:00:00 21,7 8,2 9 5 29 16 NW - 0,0
11.07.2018 15:00:00 21,0 9,3 9 5 26 14 WNW - 0,0
11.07.2018 14:00:00 20,3 8,6 11 6 29 16 NNE - -
11.07.2018 13:00:00 18,8 11,1 9 5 - - NW - 0,0
11.07.2018 12:00:00 18,4 10,7 - - 16 9 - 0 0,0
11.07.2018 11:00:00 16,2 11,4 9 5 18 10 NW 0 0,0
11.07.2018 10:00:00 15,8 11,4 5 3 13 7 NNW 0 0,0
11.07.2018 09:00:00 14,0 10,8 5 3 9 5 NW 0 0,0
11.07.2018 08:00:00 12,7 10,2 4 2 8 4 W 0 -
11.07.2018 07:00:00 11,4 9,5 4 2 8 4 SW 0 0,0
11.07.2018 06:00:00 10,4 8,7 2 1 5 3 S 0 0,0
11.07.2018 05:00:00 8,8 7,2 2 1 9 5 SSE 0 0,0
11.07.2018 04:00:00 8,4 6,9 5 3 8 4 SSW 0 0,0
11.07.2018 03:00:00 9,0 7,1 0 0 9 5 N 0 0,0
11.07.2018 02:00:00 10,2 6,9 4 2 5 3 NW 0 -
11.07.2018 01:00:00 11,0 6,3 0 0 5 3 N 0 0,0
11.07.2018 00:00:00 13,8 7,3 5 3 11 6 NNW 0 0,0
10.07.2018 23:00:00 14,9 7,0 8 4 16 9 N 0 0,0
10.07.2018 22:00:00 16,3 6,4 11 6 28 15 N 0 0,0
10.07.2018 21:00:00 18,3 6,2 16 9 29 16 NNW 54 0,0
10.07.2018 20:00:00 19,7 6,4 18 10 35 19 NNW 60 -
10.07.2018 19:00:00 21,2 6,3 16 9 35 19 NNW 60 0,0
10.07.2018 18:00:00 22,1 7,1 18 10 35 19 NNW 60 0,0

tt = temperature
td = dewpoint
ff = wind speed
fx = gusts
dd = wind direction
sd = sunshine duration
rr = precipitation

Next stations